Time;durP1;ratioP1;P1;durP2;ratioP2;P2;SDS_P1;SDS_P2;PMS_P1;PMS_P2;Temp;Humidity;BMP_temperature;BMP_pressure;BME280_temperature;BME280_humidity;BME280_pressure;Samples;Min_cycle;Max_cycle;Signal;HPM_P1;HPM_P2
2021/06/27 00:01:47;;;;;;;3.38;2.35;;;;;;;;;;5113361;28;20203;-70
2021/06/27 00:04:14;;;;;;;4.75;2.58;;;;;;;;;;5094344;28;20297;-70
2021/06/27 00:06:41;;;;;;;2.90;2.30;;;;;;;;;;5112646;28;20212;-70
2021/06/27 00:09:07;;;;;;;3.83;2.50;;;;;;;;;;5112967;28;20216;-70
2021/06/27 00:11:34;;;;;;;4.38;2.85;;;;;;;;;;5113413;28;20290;-70
2021/06/27 00:14:00;;;;;;;3.92;2.75;;;;;;;;;;5111111;28;20215;-70
2021/06/27 00:16:31;;;;;;;2.60;2.40;;;;;;;;;;5112857;28;20203;-70
2021/06/27 00:18:58;;;;;;;3.72;2.38;;;;;;;;;;5113014;28;20208;-71
2021/06/27 00:21:25;;;;;;;3.92;2.80;;;;;;;;;;5113076;28;20210;-71
2021/06/27 00:23:52;;;;;;;4.60;2.72;;;;;;;;;;5112244;28;20238;-70
2021/06/27 00:26:22;;;;;;;3.33;2.75;;;;;;;;;;5112959;28;20287;-70
2021/06/27 00:28:49;;;;;;;5.13;3.33;;;;;;;;;;5112843;28;20306;-70
2021/06/27 00:31:16;;;;;;;6.20;2.47;;;;;;;;;;5113197;28;20302;-70
2021/06/27 00:33:43;;;;;;;3.80;2.75;;;;;;;;;;5112103;28;20218;-70
2021/06/27 00:36:09;;;;;;;3.75;2.92;;;;;;;;;;5113223;28;20204;-71
2021/06/27 00:38:36;;;;;;;4.72;3.05;;;;;;;;;;5112949;28;20680;-71
2021/06/27 00:41:03;;;;;;;4.88;3.40;;;;;;;;;;5094678;28;20790;-71
2021/06/27 00:43:31;;;;;;;3.35;2.63;;;;;;;;;;5111372;28;20243;-71
2021/06/27 00:45:59;;;;;;;3.85;2.88;;;;;;;;;;5112610;28;20286;-71
2021/06/27 00:48:25;;;;;;;4.60;3.13;;;;;;;;;;5113354;28;20582;-71
2021/06/27 00:50:54;;;;;;;4.07;2.58;;;;;;;;;;5113746;28;20224;-71
2021/06/27 00:53:20;;;;;;;5.22;2.42;;;;;;;;;;5095599;28;20204;-71
2021/06/27 00:55:54;;;;;;;4.32;3.00;;;;;;;;;;5113534;28;20306;-70
2021/06/27 00:58:39;;;;;;;3.78;2.65;;;;;;;;;;5094521;28;20685;-70
2021/06/27 01:34:45;;;;;;;5.33;3.00;;;;;;;;;;5108846;27;20539;-70
2021/06/27 01:37:11;;;;;;;4.90;3.27;;;;;;;;;;5109415;28;20212;-71
2021/06/27 01:39:38;;;;;;;4.93;3.20;;;;;;;;;;5109536;28;20204;-71
2021/06/27 01:42:05;;;;;;;3.40;2.80;;;;;;;;;;5109207;28;20211;-71
2021/06/27 01:44:32;;;;;;;3.57;2.60;;;;;;;;;;5108636;27;20231;-71
2021/06/27 01:46:58;;;;;;;4.40;2.87;;;;;;;;;;5090641;28;20199;-72
2021/06/27 01:49:25;;;;;;;4.97;2.60;;;;;;;;;;5088990;28;20258;-71
2021/06/27 01:51:52;;;;;;;4.43;2.97;;;;;;;;;;5105299;28;20294;-71
2021/06/27 01:54:19;;;;;;;4.33;2.57;;;;;;;;;;5108239;28;20266;-71
2021/06/27 01:56:45;;;;;;;3.70;2.77;;;;;;;;;;5107792;28;20200;-71
2021/06/27 01:59:13;;;;;;;3.63;3.00;;;;;;;;;;5109180;28;20198;-71
2021/06/27 02:01:40;;;;;;;4.10;2.93;;;;;;;;;;5109219;28;20200;-71
2021/06/27 02:04:08;;;;;;;4.88;3.22;;;;;;;;;;5108177;28;20238;-71
2021/06/27 02:06:35;;;;;;;5.00;2.87;;;;;;;;;;5108903;28;20287;-71
2021/06/27 02:09:03;;;;;;;3.30;2.55;;;;;;;;;;5108869;28;20291;-71
2021/06/27 02:11:30;;;;;;;5.57;3.40;;;;;;;;;;5108635;28;20296;-71
2021/06/27 02:13:56;;;;;;;3.42;2.65;;;;;;;;;;5108201;28;20314;-71
2021/06/27 02:16:23;;;;;;;5.10;2.70;;;;;;;;;;5091017;28;20196;-71
2021/06/27 02:18:50;;;;;;;3.72;2.63;;;;;;;;;;5108788;28;20204;-71
2021/06/27 02:21:19;;;;;;;3.57;3.13;;;;;;;;;;5108605;28;20196;-71
2021/06/27 02:23:47;;;;;;;9.18;2.90;;;;;;;;;;5107684;28;20206;-71
2021/06/27 02:26:13;;;;;;;4.18;2.97;;;;;;;;;;5108757;28;20206;-71
2021/06/27 02:28:40;;;;;;;4.18;3.10;;;;;;;;;;5108480;28;20200;-71
2021/06/27 02:31:07;;;;;;;4.20;3.08;;;;;;;;;;5107230;28;20724;-71
2021/06/27 02:33:34;;;;;;;4.93;3.33;;;;;;;;;;5107345;28;20227;-71
2021/06/27 02:36:01;;;;;;;3.88;2.85;;;;;;;;;;5108232;28;20250;-71
2021/06/27 02:38:27;;;;;;;4.80;3.10;;;;;;;;;;5108001;28;20619;-71
2021/06/27 02:40:54;;;;;;;3.90;2.88;;;;;;;;;;5108471;28;20228;-71
2021/06/27 02:43:21;;;;;;;3.83;2.87;;;;;;;;;;5107412;28;20295;-71
2021/06/27 02:45:48;;;;;;;3.95;2.85;;;;;;;;;;5087727;28;20600;-71
2021/06/27 02:48:14;;;;;;;4.32;3.13;;;;;;;;;;5073093;28;20284;-71
2021/06/27 02:50:41;;;;;;;4.53;3.50;;;;;;;;;;5080803;28;20200;-71
2021/06/27 02:53:08;;;;;;;3.85;2.80;;;;;;;;;;5093492;28;20228;-71
2021/06/27 02:55:35;;;;;;;3.63;2.73;;;;;;;;;;5094506;28;20303;-71
2021/06/27 02:58:01;;;;;;;4.22;2.92;;;;;;;;;;5094404;28;20230;-71
2021/06/27 03:00:31;;;;;;;6.73;3.27;;;;;;;;;;5094479;28;20287;-71
2021/06/27 03:02:58;;;;;;;3.63;2.90;;;;;;;;;;5093537;28;20621;-71
2021/06/27 03:05:25;;;;;;;5.07;3.50;;;;;;;;;;5094096;28;20308;-72
2021/06/27 03:07:51;;;;;;;4.17;3.03;;;;;;;;;;5094649;28;20207;-71
2021/06/27 03:10:18;;;;;;;4.82;3.17;;;;;;;;;;5094961;28;20244;-71
2021/06/27 03:12:46;;;;;;;3.70;2.97;;;;;;;;;;5094073;28;20283;-71
2021/06/27 03:15:13;;;;;;;3.97;3.08;;;;;;;;;;5094139;28;20228;-71
2021/06/27 03:17:40;;;;;;;4.10;3.03;;;;;;;;;;5094076;28;20209;-71
2021/06/27 03:20:08;;;;;;;4.47;3.30;;;;;;;;;;5096121;28;20576;-72
2021/06/27 03:22:35;;;;;;;5.60;3.80;;;;;;;;;;5102075;28;20201;-71
2021/06/27 03:25:01;;;;;;;8.63;3.43;;;;;;;;;;5102340;28;20267;-71
2021/06/27 03:27:28;;;;;;;4.45;3.70;;;;;;;;;;5095864;28;20209;-71
2021/06/27 03:29:54;;;;;;;5.30;3.45;;;;;;;;;;5094019;28;20208;-71
2021/06/27 03:32:20;;;;;;;4.32;3.08;;;;;;;;;;5093710;28;20212;-70
2021/06/27 03:34:47;;;;;;;4.25;3.33;;;;;;;;;;5092656;28;20617;-71
2021/06/27 03:37:13;;;;;;;4.75;3.67;;;;;;;;;;5093643;28;20663;-71
2021/06/27 03:39:39;;;;;;;7.38;4.05;;;;;;;;;;5092691;28;20210;-71
2021/06/27 03:42:06;;;;;;;5.50;4.20;;;;;;;;;;5093580;28;20207;-71
2021/06/27 03:44:32;;;;;;;4.13;3.22;;;;;;;;;;5072485;28;20292;-71
2021/06/27 03:46:59;;;;;;;5.68;3.30;;;;;;;;;;5091553;28;20287;-71
2021/06/27 03:49:25;;;;;;;3.80;3.22;;;;;;;;;;5093137;28;20207;-71
2021/06/27 03:51:52;;;;;;;5.13;3.83;;;;;;;;;;5093365;28;20296;-71
2021/06/27 03:54:19;;;;;;;7.95;4.00;;;;;;;;;;5092501;28;20228;-71
2021/06/27 03:56:45;;;;;;;4.80;3.57;;;;;;;;;;5091131;28;20214;-71
2021/06/27 03:59:11;;;;;;;5.85;4.63;;;;;;;;;;5093105;28;20283;-71
2021/06/27 04:01:38;;;;;;;5.23;3.73;;;;;;;;;;5092999;28;20303;-71
2021/06/27 04:04:05;;;;;;;7.32;4.13;;;;;;;;;;5092089;28;20228;-70
2021/06/27 04:06:31;;;;;;;5.97;4.18;;;;;;;;;;5093219;28;20201;-70
2021/06/27 04:08:57;;;;;;;5.22;3.55;;;;;;;;;;5091663;28;20591;-70
2021/06/27 04:11:24;;;;;;;3.70;3.15;;;;;;;;;;5092634;28;20589;-70
2021/06/27 04:13:50;;;;;;;6.20;4.40;;;;;;;;;;5090836;28;20227;-70
2021/06/27 04:16:17;;;;;;;4.70;3.47;;;;;;;;;;5091425;28;20245;-71
2021/06/27 04:18:43;;;;;;;4.20;3.25;;;;;;;;;;5074799;28;20208;-71
2021/06/27 04:21:10;;;;;;;3.72;3.13;;;;;;;;;;5092937;28;20303;-71
2021/06/27 04:23:37;;;;;;;5.28;3.60;;;;;;;;;;5091969;28;20211;-71
2021/06/27 04:26:05;;;;;;;3.97;3.22;;;;;;;;;;5092763;28;20634;-71
2021/06/27 04:28:31;;;;;;;5.10;3.58;;;;;;;;;;5092535;28;20220;-71
2021/06/27 04:30:58;;;;;;;4.32;3.10;;;;;;;;;;5092397;28;20200;-71
2021/06/27 04:33:24;;;;;;;5.93;3.17;;;;;;;;;;5091672;28;20228;-71
2021/06/27 04:35:50;;;;;;;4.72;3.20;;;;;;;;;;5092570;28;20220;-71
2021/06/27 04:38:19;;;;;;;4.20;3.38;;;;;;;;;;5092465;28;20287;-71
2021/06/27 04:40:45;;;;;;;3.13;2.45;;;;;;;;;;5092417;28;20210;-71
2021/06/27 04:43:12;;;;;;;3.97;2.80;;;;;;;;;;5091544;28;20207;-71
2021/06/27 04:45:40;;;;;;;4.68;3.00;;;;;;;;;;5085007;28;20304;-71
2021/06/27 04:48:07;;;;;;;4.68;3.30;;;;;;;;;;5072047;28;20207;-70
2021/06/27 04:50:34;;;;;;;4.85;3.15;;;;;;;;;;5077655;28;20197;-70
2021/06/27 04:53:01;;;;;;;3.85;3.08;;;;;;;;;;5091656;28;20200;-70
2021/06/27 04:55:27;;;;;;;3.92;3.08;;;;;;;;;;5092040;28;20707;-70
2021/06/27 04:57:55;;;;;;;5.35;3.35;;;;;;;;;;5091983;28;20607;-70
2021/06/27 05:00:21;;;;;;;3.67;3.08;;;;;;;;;;5092101;28;20204;-70
2021/06/27 05:02:47;;;;;;;4.32;2.78;;;;;;;;;;5090130;28;20196;-70
2021/06/27 05:05:14;;;;;;;5.22;3.58;;;;;;;;;;5091870;28;20315;-70
2021/06/27 05:07:40;;;;;;;3.72;2.38;;;;;;;;;;5091899;28;20276;-70
2021/06/27 05:10:07;;;;;;;4.75;3.33;;;;;;;;;;5092194;28;20214;-70
2021/06/27 05:12:34;;;;;;;3.63;2.90;;;;;;;;;;5091533;28;20222;-70
2021/06/27 05:15:00;;;;;;;3.58;2.88;;;;;;;;;;5090161;28;20232;-70
2021/06/27 05:17:26;;;;;;;3.35;2.72;;;;;;;;;;5091861;28;20200;-70
2021/06/27 05:19:53;;;;;;;3.70;2.90;;;;;;;;;;5091896;28;20197;-70
2021/06/27 05:22:19;;;;;;;2.65;2.45;;;;;;;;;;5091793;28;20647;-70
2021/06/27 05:24:46;;;;;;;4.13;2.58;;;;;;;;;;5091081;28;20230;-70
2021/06/27 05:27:12;;;;;;;3.65;2.63;;;;;;;;;;5091622;28;20208;-70
2021/06/27 05:29:39;;;;;;;3.40;2.17;;;;;;;;;;5091941;28;20300;-71
2021/06/27 05:32:05;;;;;;;2.92;1.98;;;;;;;;;;5091788;28;20196;-71
2021/06/27 05:34:32;;;;;;;2.70;2.33;;;;;;;;;;5090721;28;20246;-70
2021/06/27 05:36:58;;;;;;;3.47;2.10;;;;;;;;;;5073696;28;20296;-70
2021/06/27 05:39:25;;;;;;;2.38;1.90;;;;;;;;;;5091594;28;20750;-70
2021/06/27 05:41:52;;;;;;;2.85;2.20;;;;;;;;;;5091425;28;20204;-70
2021/06/27 05:44:21;;;;;;;2.80;2.00;;;;;;;;;;5090787;28;20319;-71
2021/06/27 05:46:48;;;;;;;2.92;1.80;;;;;;;;;;5074188;28;20197;-71
2021/06/27 05:49:14;;;;;;;1.67;1.48;;;;;;;;;;5072174;28;20237;-71
2021/06/27 05:51:41;;;;;;;1.92;1.63;;;;;;;;;;5082010;28;20678;-70
2021/06/27 05:54:08;;;;;;;2.28;1.88;;;;;;;;;;5086162;28;20746;-71
2021/06/27 05:56:35;;;;;;;2.45;1.65;;;;;;;;;;5092332;28;20649;-72
2021/06/27 05:59:02;;;;;;;1.95;1.75;;;;;;;;;;5093077;28;20287;-71
2021/06/27 06:01:28;;;;;;;2.40;1.90;;;;;;;;;;5091980;28;20200;-71
2021/06/27 06:03:55;;;;;;;2.05;1.58;;;;;;;;;;5090794;28;20236;-70
2021/06/27 06:06:21;;;;;;;1.90;1.70;;;;;;;;;;5091337;28;20279;-71
2021/06/27 06:08:47;;;;;;;4.28;1.95;;;;;;;;;;5089993;28;20204;-70
2021/06/27 06:11:15;;;;;;;2.03;1.80;;;;;;;;;;5091523;28;20280;-71
2021/06/27 06:13:41;;;;;;;2.40;1.75;;;;;;;;;;5090580;28;20223;-70
2021/06/27 06:16:11;;;;;;;1.85;1.60;;;;;;;;;;5091130;28;20212;-70
2021/06/27 06:18:41;;;;;;;3.05;1.88;;;;;;;;;;5091197;28;20240;-72
2021/06/27 06:21:07;;;;;;;1.75;1.65;;;;;;;;;;5094168;28;20291;-72
2021/06/27 06:23:33;;;;;;;2.20;2.00;;;;;;;;;;5093907;28;20207;-72
2021/06/27 06:26:00;;;;;;;3.40;2.17;;;;;;;;;;5095234;28;20231;-70
2021/06/27 06:28:26;;;;;;;3.50;2.05;;;;;;;;;;5094890;28;20201;-70
2021/06/27 06:30:52;;;;;;;2.35;2.15;;;;;;;;;;5094922;28;20255;-71
2021/06/27 06:33:19;;;;;;;2.13;1.90;;;;;;;;;;5094093;28;20238;-70
2021/06/27 06:35:45;;;;;;;2.33;1.98;;;;;;;;;;5094702;28;20314;-70
2021/06/27 06:38:12;;;;;;;2.17;1.88;;;;;;;;;;5076610;28;20221;-71
2021/06/27 06:40:39;;;;;;;2.35;2.13;;;;;;;;;;5094687;28;20208;-70
2021/06/27 06:43:06;;;;;;;2.08;1.88;;;;;;;;;;5093928;28;20236;-70
2021/06/27 06:45:33;;;;;;;1.90;1.70;;;;;;;;;;5088042;28;20674;-72
2021/06/27 06:48:00;;;;;;;1.80;1.70;;;;;;;;;;5075468;28;20628;-72
2021/06/27 06:50:27;;;;;;;2.55;1.80;;;;;;;;;;5078713;28;20279;-71
2021/06/27 06:52:53;;;;;;;2.40;2.17;;;;;;;;;;5093605;28;20259;-70
2021/06/27 06:55:23;;;;;;;2.35;2.00;;;;;;;;;;5094530;28;20310;-70
2021/06/27 06:57:49;;;;;;;2.25;1.73;;;;;;;;;;5094261;28;20206;-71
2021/06/27 07:00:16;;;;;;;2.35;2.10;;;;;;;;;;5092912;28;20259;-71
2021/06/27 07:02:42;;;;;;;1.95;1.85;;;;;;;;;;5093743;28;20208;-71
2021/06/27 07:05:09;;;;;;;5.03;2.22;;;;;;;;;;5093672;28;20315;-71
2021/06/27 07:07:40;;;;;;;1.98;1.73;;;;;;;;;;5094019;28;20197;-71
2021/06/27 07:10:07;;;;;;;2.78;2.05;;;;;;;;;;5094233;28;20228;-71
2021/06/27 07:12:33;;;;;;;1.73;1.40;;;;;;;;;;5093905;28;20273;-71
2021/06/27 07:15:00;;;;;;;1.98;1.70;;;;;;;;;;5075469;28;20232;-71
2021/06/27 07:17:26;;;;;;;3.35;2.30;;;;;;;;;;5092725;28;20244;-71
2021/06/27 07:19:53;;;;;;;2.35;2.03;;;;;;;;;;5093978;28;20212;-71
2021/06/27 07:22:19;;;;;;;4.68;1.80;;;;;;;;;;5093999;28;20288;-71
2021/06/27 07:24:45;;;;;;;2.00;1.50;;;;;;;;;;5093025;28;20243;-71
2021/06/27 07:27:12;;;;;;;3.08;1.63;;;;;;;;;;5093865;28;20207;-72
2021/06/27 07:29:38;;;;;;;2.08;1.60;;;;;;;;;;5093518;28;20200;-72
2021/06/27 07:32:06;;;;;;;2.00;1.63;;;;;;;;;;5093521;28;20215;-72
2021/06/27 07:34:32;;;;;;;1.55;1.40;;;;;;;;;;5092612;28;20263;-72
2021/06/27 07:36:59;;;;;;;2.75;1.50;;;;;;;;;;5093496;28;20201;-72
2021/06/27 07:39:26;;;;;;;1.52;1.40;;;;;;;;;;5093271;28;20208;-72
2021/06/27 07:41:52;;;;;;;1.58;1.33;;;;;;;;;;5092191;28;20683;-72
2021/06/27 07:44:18;;;;;;;1.50;1.40;;;;;;;;;;5092372;28;20232;-70
2021/06/27 07:46:45;;;;;;;2.13;1.52;;;;;;;;;;5076530;28;20200;-71
2021/06/27 07:49:11;;;;;;;1.40;1.30;;;;;;;;;;5072681;28;20212;-72
2021/06/27 07:51:38;;;;;;;2.22;1.20;;;;;;;;;;5087241;28;20227;-72
2021/06/27 07:54:04;;;;;;;1.50;1.25;;;;;;;;;;5092321;28;20226;-72
2021/06/27 07:56:30;;;;;;;3.10;1.65;;;;;;;;;;5091369;28;20243;-72
2021/06/27 07:58:59;;;;;;;1.30;1.20;;;;;;;;;;5092791;28;20204;-71
2021/06/27 08:01:25;;;;;;;1.17;1.08;;;;;;;;;;5092644;28;20222;-71
2021/06/27 08:03:52;;;;;;;1.50;1.30;;;;;;;;;;5091054;28;20200;-71
2021/06/27 08:06:18;;;;;;;1.67;1.30;;;;;;;;;;5091537;28;20228;-71
2021/06/27 08:08:45;;;;;;;3.17;1.33;;;;;;;;;;5091705;28;20291;-71
2021/06/27 08:11:11;;;;;;;1.95;1.60;;;;;;;;;;5092745;28;20286;-71
2021/06/27 08:13:38;;;;;;;2.20;1.63;;;;;;;;;;5091748;28;20291;-71
2021/06/27 08:16:04;;;;;;;2.05;1.63;;;;;;;;;;5092391;28;20201;-71
2021/06/27 08:18:30;;;;;;;1.15;1.13;;;;;;;;;;5090907;28;20567;-71
2021/06/27 08:20:57;;;;;;;1.23;1.13;;;;;;;;;;5092796;28;20239;-72
2021/06/27 08:23:23;;;;;;;1.48;1.30;;;;;;;;;;5092120;28;20288;-72
2021/06/27 08:25:50;;;;;;;2.42;1.70;;;;;;;;;;5093612;28;20228;-72
2021/06/27 08:28:16;;;;;;;1.75;1.65;;;;;;;;;;5094015;28;20287;-71
2021/06/27 08:30:43;;;;;;;1.38;1.17;;;;;;;;;;5091731;28;20250;-71
2021/06/27 08:33:09;;;;;;;1.58;1.25;;;;;;;;;;5090480;28;20289;-70
2021/06/27 08:35:36;;;;;;;2.17;1.48;;;;;;;;;;5092113;28;20230;-71
2021/06/27 08:38:02;;;;;;;2.05;1.50;;;;;;;;;;5092107;28;20707;-70
2021/06/27 08:40:29;;;;;;;1.58;1.40;;;;;;;;;;5091141;28;20287;-70
2021/06/27 08:42:56;;;;;;;1.73;1.60;;;;;;;;;;5089331;28;20304;-71
2021/06/27 08:45:23;;;;;;;1.98;1.48;;;;;;;;;;5086797;28;20221;-72
2021/06/27 08:47:51;;;;;;;0.88;0.88;;;;;;;;;;5071843;28;20240;-72
2021/06/27 08:50:17;;;;;;;1.63;1.20;;;;;;;;;;5090504;28;20232;-72
2021/06/27 08:52:45;;;;;;;1.35;1.25;;;;;;;;;;5091205;28;20215;-72
2021/06/27 08:55:12;;;;;;;2.10;1.25;;;;;;;;;;5091634;28;20724;-72
2021/06/27 08:57:39;;;;;;;2.28;1.80;;;;;;;;;;5073738;28;20287;-72
2021/06/27 09:00:07;;;;;;;2.47;1.30;;;;;;;;;;5091450;28;20293;-72
2021/06/27 09:02:33;;;;;;;2.20;1.40;;;;;;;;;;5091476;28;20292;-72
2021/06/27 09:05:00;;;;;;;1.58;1.27;;;;;;;;;;5090707;28;20239;-72
2021/06/27 09:07:33;;;;;;;1.42;1.17;;;;;;;;;;5091578;28;20204;-72
2021/06/27 09:09:59;;;;;;;2.25;1.60;;;;;;;;;;5089717;28;20204;-71
2021/06/27 09:12:26;;;;;;;1.52;1.25;;;;;;;;;;5090731;28;20276;-71
2021/06/27 09:14:54;;;;;;;1.30;1.15;;;;;;;;;;5089973;28;20570;-71
2021/06/27 09:17:23;;;;;;;1.30;1.20;;;;;;;;;;5090606;28;20236;-70
2021/06/27 09:19:52;;;;;;;1.70;1.40;;;;;;;;;;5090728;28;20243;-71
2021/06/27 09:22:19;;;;;;;1.58;1.40;;;;;;;;;;5090848;28;20735;-70
2021/06/27 09:24:47;;;;;;;1.73;1.63;;;;;;;;;;5088902;28;20322;-71
2021/06/27 09:27:17;;;;;;;1.45;1.20;;;;;;;;;;5089920;28;20291;-71
2021/06/27 09:29:43;;;;;;;1.30;1.20;;;;;;;;;;5090262;28;20239;-71
2021/06/27 09:32:17;;;;;;;2.17;1.50;;;;;;;;;;5090157;28;20211;-71
2021/06/27 09:34:43;;;;;;;1.08;1.00;;;;;;;;;;5089561;28;20690;-71
2021/06/27 09:37:12;;;;;;;1.35;1.20;;;;;;;;;;5090167;28;20216;-71
2021/06/27 09:39:59;;;;;;;1.27;1.17;;;;;;;;;;5090434;28;20720;-71
2021/06/27 09:42:26;;;;;;;1.30;1.20;;;;;;;;;;5090911;28;20302;-71
2021/06/27 09:45:00;;;;;;;1.23;1.13;;;;;;;;;;5089209;28;20258;-72
2021/06/27 09:47:27;;;;;;;1.40;1.30;;;;;;;;;;5070343;28;20243;-71
2021/06/27 09:49:54;;;;;;;1.40;1.30;;;;;;;;;;5070505;28;20560;-71
2021/06/27 09:52:35;;;;;;;1.75;1.35;;;;;;;;;;5070770;28;20254;-73
2021/06/27 09:55:05;;;;;;;1.63;1.10;;;;;;;;;;5071114;28;20228;-71
2021/06/27 09:57:31;;;;;;;1.90;1.15;;;;;;;;;;5073251;28;20208;-72
2021/06/27 09:59:57;;;;;;;1.50;1.35;;;;;;;;;;5089175;28;20742;-71
2021/06/27 10:02:24;;;;;;;0.75;0.75;;;;;;;;;;5073472;28;20661;-71
2021/06/27 10:04:50;;;;;;;1.08;0.98;;;;;;;;;;5072808;28;20642;-71
2021/06/27 10:07:17;;;;;;;1.95;1.02;;;;;;;;;;5073549;28;20256;-71
2021/06/27 10:09:43;;;;;;;1.67;1.42;;;;;;;;;;5072984;28;20315;-71
2021/06/27 10:12:11;;;;;;;1.50;1.15;;;;;;;;;;5073052;28;20398;-71
2021/06/27 10:14:41;;;;;;;5.80;2.97;;;;;;;;;;5071389;28;20308;-71
2021/06/27 10:17:08;;;;;;;2.30;1.20;;;;;;;;;;5072829;28;20220;-71
2021/06/27 10:19:34;;;;;;;3.15;2.15;;;;;;;;;;5072506;28;20225;-71
2021/06/27 10:22:02;;;;;;;3.30;2.67;;;;;;;;;;5072577;28;20279;-71
2021/06/27 10:24:29;;;;;;;1.85;1.45;;;;;;;;;;5072268;28;20635;-71
2021/06/27 10:26:58;;;;;;;2.10;1.60;;;;;;;;;;5072714;28;20282;-71
2021/06/27 10:29:25;;;;;;;3.30;2.35;;;;;;;;;;5072743;28;20207;-71
2021/06/27 10:31:52;;;;;;;1.58;1.30;;;;;;;;;;5073241;28;20469;-71
2021/06/27 10:34:19;;;;;;;1.33;1.13;;;;;;;;;;5072039;28;20356;-71
2021/06/27 10:36:49;;;;;;;1.60;1.40;;;;;;;;;;5072544;28;20331;-71
2021/06/27 10:39:15;;;;;;;1.35;1.25;;;;;;;;;;5071913;28;20299;-70
2021/06/27 10:41:54;;;;;;;1.70;1.60;;;;;;;;;;5072545;28;20236;-72
2021/06/27 10:44:23;;;;;;;2.67;1.25;;;;;;;;;;5085530;28;20221;-73
2021/06/27 10:46:51;;;;;;;1.10;1.00;;;;;;;;;;5088955;28;20315;-70
2021/06/27 10:49:33;;;;;;;1.70;1.33;;;;;;;;;;5093061;28;20209;-71
2021/06/27 10:52:03;;;;;;;1.38;1.27;;;;;;;;;;5093197;28;20200;-71
2021/06/27 10:54:30;;;;;;;1.95;1.63;;;;;;;;;;5092981;28;20290;-72
2021/06/27 10:57:02;;;;;;;8.10;6.70;;;;;;;;;;5096193;28;20205;-72
2021/06/27 10:59:37;;;;;;;1.90;1.70;;;;;;;;;;5097815;28;20244;-72
2021/06/27 11:02:27;;;;;;;1.20;1.10;;;;;;;;;;5096957;28;20322;-72
2021/06/27 11:04:54;;;;;;;1.40;1.05;;;;;;;;;;5090150;28;20311;-71
2021/06/27 11:07:35;;;;;;;2.15;1.35;;;;;;;;;;5093013;28;20196;-72
2021/06/27 11:10:20;;;;;;;8.10;5.30;;;;;;;;;;5092654;28;20204;-72
2021/06/27 11:12:59;;;;;;;2.60;1.95;;;;;;;;;;5091982;28;20279;-71
2021/06/27 11:15:29;;;;;;;2.33;1.63;;;;;;;;;;5092184;28;20224;-71
2021/06/27 11:18:00;;;;;;;2.05;1.40;;;;;;;;;;5092196;28;20208;-71
2021/06/27 11:20:28;;;;;;;1.30;1.20;;;;;;;;;;5090801;28;20302;-71
2021/06/27 11:22:56;;;;;;;2.13;1.70;;;;;;;;;;5090744;28;20291;-71
2021/06/27 11:25:39;;;;;;;20.10;11.43;;;;;;;;;;5093015;28;20255;-71
2021/06/27 11:28:18;;;;;;;18.30;11.85;;;;;;;;;;5092216;28;20295;-71
2021/06/27 11:31:15;;;;;;;5.25;3.50;;;;;;;;;;5091739;28;20529;-71
2021/06/27 11:33:42;;;;;;;3.40;2.25;;;;;;;;;;5090701;28;20224;-71
2021/06/27 11:36:24;;;;;;;1.63;1.50;;;;;;;;;;5091141;28;20213;-71
2021/06/27 11:38:50;;;;;;;13.13;9.07;;;;;;;;;;5091919;28;20239;-71
2021/06/27 11:41:19;;;;;;;2.38;1.92;;;;;;;;;;5091831;28;20264;-72
2021/06/27 11:43:55;;;;;;;1.15;1.05;;;;;;;;;;5089394;28;20296;-72
2021/06/27 11:46:29;;;;;;;1.98;1.52;;;;;;;;;;5077886;28;20300;-72
2021/06/27 11:49:00;;;;;;;1.25;0.95;;;;;;;;;;5069976;28;20307;-72
2021/06/27 11:51:40;;;;;;;1.55;1.30;;;;;;;;;;5081882;28;20661;-72
2021/06/27 11:54:07;;;;;;;2.63;1.73;;;;;;;;;;5090359;28;20789;-72
2021/06/27 11:57:12;;;;;;;1.52;1.33;;;;;;;;;;5091060;28;20744;-72
2021/06/27 11:59:39;;;;;;;2.00;1.20;;;;;;;;;;5069953;28;20248;-72
2021/06/27 12:02:13;;;;;;;1.85;1.52;;;;;;;;;;5069862;28;20213;-72
2021/06/27 12:04:41;;;;;;;1.63;1.45;;;;;;;;;;5081151;28;20251;-71
2021/06/27 12:07:26;;;;;;;6.50;4.32;;;;;;;;;;5088581;28;20338;-71
2021/06/27 12:09:53;;;;;;;1.75;1.52;;;;;;;;;;5089905;28;20287;-71
2021/06/27 12:12:38;;;;;;;2.63;1.83;;;;;;;;;;5089960;28;20516;-71
2021/06/27 12:15:06;;;;;;;15.40;9.13;;;;;;;;;;5089095;28;20672;-71
2021/06/27 12:17:32;;;;;;;1.70;1.60;;;;;;;;;;5086752;28;20208;-72
2021/06/27 12:19:59;;;;;;;1.30;1.20;;;;;;;;;;5090520;28;20232;-71
2021/06/27 12:22:25;;;;;;;1.35;1.25;;;;;;;;;;5090873;28;20208;-73
2021/06/27 12:24:59;;;;;;;1.58;1.30;;;;;;;;;;5089455;28;20263;-72
2021/06/27 12:27:25;;;;;;;1.52;1.30;;;;;;;;;;5090581;28;20229;-72
2021/06/27 12:29:52;;;;;;;1.55;1.17;;;;;;;;;;5090379;28;20239;-71
2021/06/27 12:32:19;;;;;;;2.42;1.88;;;;;;;;;;5090613;28;20266;-71
2021/06/27 12:34:46;;;;;;;1.27;1.10;;;;;;;;;;5090344;28;20240;-71
2021/06/27 12:37:16;;;;;;;1.88;1.50;;;;;;;;;;5090184;28;20354;-72
2021/06/27 12:39:42;;;;;;;1.10;1.00;;;;;;;;;;5090045;28;20354;-72
2021/06/27 12:42:13;;;;;;;1.52;1.17;;;;;;;;;;5090062;28;20288;-72
2021/06/27 12:44:39;;;;;;;1.20;1.10;;;;;;;;;;5088699;28;20327;-73
2021/06/27 12:47:06;;;;;;;1.10;1.00;;;;;;;;;;5070334;28;20700;-71
2021/06/27 12:49:35;;;;;;;1.58;1.20;;;;;;;;;;5069624;28;20662;-72
2021/06/27 12:52:04;;;;;;;2.47;1.02;;;;;;;;;;5086032;28;20273;-72
2021/06/27 12:54:32;;;;;;;1.25;1.00;;;;;;;;;;5089387;28;20235;-73
2021/06/27 12:56:58;;;;;;;0.98;0.65;;;;;;;;;;5088960;28;20208;-73
2021/06/27 12:59:43;;;;;;;2.28;1.05;;;;;;;;;;5089544;28;20235;-73
2021/06/27 13:02:34;;;;;;;1.63;1.17;;;;;;;;;;5090324;28;20240;-71
2021/06/27 13:05:01;;;;;;;1.40;1.15;;;;;;;;;;5089633;28;20536;-73
2021/06/27 13:07:29;;;;;;;1.73;1.20;;;;;;;;;;5089023;28;20319;-73
2021/06/27 13:10:11;;;;;;;1.75;1.00;;;;;;;;;;5090120;28;20222;-73
2021/06/27 13:12:41;;;;;;;1.17;0.90;;;;;;;;;;5089350;28;20223;-73
2021/06/27 13:15:16;;;;;;;1.23;1.13;;;;;;;;;;5089800;28;20270;-73
2021/06/27 13:17:49;;;;;;;0.80;0.73;;;;;;;;;;5089786;28;20296;-72
2021/06/27 13:20:16;;;;;;;1.35;0.93;;;;;;;;;;5090442;28;20239;-73
2021/06/27 13:22:55;;;;;;;1.00;0.90;;;;;;;;;;5091144;28;20259;-70
2021/06/27 13:25:51;;;;;;;1.20;1.05;;;;;;;;;;5092529;28;20316;-71
2021/06/27 13:28:41;;;;;;;1.38;1.10;;;;;;;;;;5090891;28;20201;-71
2021/06/27 13:31:08;;;;;;;1.63;0.85;;;;;;;;;;5090779;28;20204;-71
2021/06/27 13:33:39;;;;;;;0.98;0.82;;;;;;;;;;5091207;28;20666;-70
2021/06/27 13:36:07;;;;;;;1.25;1.05;;;;;;;;;;5091138;28;20200;-74
2021/06/27 13:38:35;;;;;;;1.75;0.88;;;;;;;;;;5091148;28;20269;-71
2021/06/27 13:41:02;;;;;;;1.30;0.85;;;;;;;;;;5088246;28;20761;-71
2021/06/27 13:43:29;;;;;;;2.03;1.02;;;;;;;;;;5089807;28;20707;-72
2021/06/27 13:45:55;;;;;;;1.05;0.90;;;;;;;;;;5079065;28;20305;-70
2021/06/27 13:48:22;;;;;;;1.40;1.17;;;;;;;;;;5069401;28;20266;-71
2021/06/27 13:50:48;;;;;;;0.77;0.77;;;;;;;;;;5076926;28;20245;-71
2021/06/27 13:53:15;;;;;;;1.38;0.80;;;;;;;;;;5087209;28;20216;-74
2021/06/27 13:55:42;;;;;;;1.25;1.15;;;;;;;;;;5090046;28;20285;-72
2021/06/27 13:58:09;;;;;;;2.50;1.15;;;;;;;;;;5089935;28;20209;-73
2021/06/27 14:00:36;;;;;;;1.00;0.75;;;;;;;;;;5089081;28;20197;-73
2021/06/27 14:03:02;;;;;;;1.55;1.00;;;;;;;;;;5088978;28;20736;-73
2021/06/27 14:05:29;;;;;;;1.10;1.00;;;;;;;;;;5089769;28;20243;-72
2021/06/27 14:07:57;;;;;;;1.50;1.10;;;;;;;;;;5087721;28;20705;-72
2021/06/27 14:10:25;;;;;;;0.82;0.82;;;;;;;;;;5088608;28;20341;-73
2021/06/27 14:12:52;;;;;;;1.95;1.27;;;;;;;;;;5089074;28;20653;-73
2021/06/27 14:15:19;;;;;;;1.02;0.90;;;;;;;;;;5087733;28;20267;-73
2021/06/27 14:17:46;;;;;;;1.08;0.90;;;;;;;;;;5089032;28;20251;-76
2021/06/27 14:20:13;;;;;;;2.85;1.48;;;;;;;;;;5088887;28;20664;-73
2021/06/27 14:22:40;;;;;;;1.42;1.10;;;;;;;;;;5087487;28;20637;-73
2021/06/27 14:25:07;;;;;;;1.70;1.20;;;;;;;;;;5088451;28;20600;-72
2021/06/27 14:27:35;;;;;;;0.60;0.60;;;;;;;;;;5088862;28;20807;-73
2021/06/27 14:30:03;;;;;;;1.08;0.98;;;;;;;;;;5087470;28;20250;-73
2021/06/27 14:32:29;;;;;;;0.88;0.73;;;;;;;;;;5088578;28;20311;-72
2021/06/27 14:34:56;;;;;;;0.88;0.88;;;;;;;;;;5086866;28;20254;-73
2021/06/27 14:37:22;;;;;;;1.38;1.00;;;;;;;;;;5087240;28;20371;-72
2021/06/27 14:39:48;;;;;;;1.10;0.85;;;;;;;;;;5088498;28;20209;-72
2021/06/27 14:42:15;;;;;;;1.10;0.98;;;;;;;;;;5091106;28;20207;-71
2021/06/27 14:44:41;;;;;;;0.77;0.77;;;;;;;;;;5091211;28;20319;-72
2021/06/27 14:47:08;;;;;;;2.00;1.15;;;;;;;;;;5072554;28;20399;-72
2021/06/27 14:49:34;;;;;;;2.13;1.33;;;;;;;;;;5071899;28;20286;-72
2021/06/27 14:52:01;;;;;;;1.10;1.00;;;;;;;;;;5067163;28;20236;-72
2021/06/27 14:54:27;;;;;;;1.38;1.15;;;;;;;;;;5070363;28;20265;-71
2021/06/27 14:56:54;;;;;;;1.73;1.25;;;;;;;;;;5071307;28;20213;-72
2021/06/27 14:59:20;;;;;;;1.75;1.45;;;;;;;;;;5070777;28;20240;-70
2021/06/27 15:01:46;;;;;;;1.77;1.48;;;;;;;;;;5071078;28;20236;-74
2021/06/27 15:04:13;;;;;;;1.35;1.17;;;;;;;;;;5070350;28;20245;-73
2021/06/27 15:06:39;;;;;;;1.83;1.17;;;;;;;;;;5071118;28;20348;-72
2021/06/27 15:09:06;;;;;;;1.00;0.90;;;;;;;;;;5071617;28;20264;-73
2021/06/27 15:11:33;;;;;;;1.90;1.30;;;;;;;;;;5070976;28;20201;-72
2021/06/27 15:13:59;;;;;;;1.52;1.10;;;;;;;;;;5070150;28;20226;-71
2021/06/27 15:16:25;;;;;;;1.20;1.10;;;;;;;;;;5070042;28;20281;-70
2021/06/27 15:18:52;;;;;;;1.27;1.10;;;;;;;;;;5071239;28;20274;-71
2021/06/27 15:21:18;;;;;;;1.40;1.17;;;;;;;;;;5072579;28;20708;-71
2021/06/27 15:23:45;;;;;;;1.00;0.88;;;;;;;;;;5071759;28;20279;-71